createdAt,value
2019-05-27T00:00:50.446Z,82.26
2019-05-27T00:01:16.588Z,82.54
2019-05-27T00:02:08.941Z,82.54
2019-05-27T00:02:35.322Z,82.35
2019-05-27T00:03:28.062Z,83.22
2019-05-27T00:04:46.833Z,83.31
2019-05-27T00:05:39.164Z,82.74
2019-05-27T00:06:57.616Z,82.45
2019-05-27T00:07:49.917Z,82.26
2019-05-27T00:08:16.089Z,82.59
2019-05-27T00:09:08.390Z,82.54
2019-05-27T00:10:26.834Z,82.16
2019-05-27T00:11:19.216Z,82.1
2019-05-27T00:11:45.355Z,82.4
2019-05-27T00:12:37.739Z,82.49
2019-05-27T00:13:30.062Z,82.4
2019-05-27T00:13:56.203Z,81.87
2019-05-27T00:14:48.588Z,81.59
2019-05-27T00:16:07.041Z,81.87
2019-05-27T00:16:59.350Z,82.16
2019-05-27T00:17:25.526Z,82.45
2019-05-27T00:18:17.883Z,82.54
2019-05-27T00:19:10.232Z,82.74
2019-05-27T00:19:36.367Z,83.03
2019-05-27T00:20:28.805Z,83.07
2019-05-27T00:21:47.252Z,83.51
2019-05-27T00:22:39.561Z,83.8
2019-05-27T00:23:05.750Z,84.08
2019-05-27T00:23:58.047Z,84.56
2019-05-27T00:25:17.660Z,86
2019-05-27T00:26:09.979Z,86.38
2019-05-27T00:26:36.151Z,85.81
2019-05-27T00:27:28.473Z,85.71
2019-05-27T00:28:46.989Z,86
2019-05-27T00:29:39.322Z,86.58
2019-05-27T00:30:05.479Z,87.25
2019-05-27T00:30:57.820Z,90.37
2019-05-27T00:31:50.135Z,90.75
2019-05-27T00:32:16.310Z,90.75
2019-05-27T00:33:08.622Z,90.85
2019-05-27T00:34:27.109Z,92.58
2019-05-27T00:35:19.371Z,93.3
2019-05-27T00:35:45.511Z,93.68
2019-05-27T00:36:37.803Z,94.45
2019-05-27T00:37:30.257Z,97.81
2019-05-27T00:37:56.364Z,98
2019-05-27T00:38:48.688Z,97.04
2019-05-27T00:39:14.867Z,97.81
2019-05-27T00:39:40.974Z,98.1
2019-05-27T00:40:07.114Z,99.15
2019-05-27T00:41:25.780Z,99.24
2019-05-27T00:42:18.066Z,98.96
2019-05-27T00:42:44.237Z,98.57
2019-05-27T00:43:36.526Z,99.15
2019-05-27T00:44:28.817Z,98.67
2019-05-27T00:44:54.952Z,98.77
2019-05-27T00:45:47.416Z,98.77
2019-05-27T00:47:05.879Z,99.99
2019-05-27T00:47:58.179Z,99.99
2019-05-27T00:48:24.358Z,99.99
2019-05-27T00:49:16.839Z,99.99
2019-05-27T00:50:09.138Z,99.99
2019-05-27T00:50:35.280Z,99.99
2019-05-27T00:51:27.576Z,99.99
2019-05-27T00:52:46.098Z,99.99
2019-05-27T00:53:38.516Z,99.99
2019-05-27T00:54:04.662Z,99.99
2019-05-27T00:54:56.950Z,99.99
2019-05-27T00:56:15.403Z,99.99
2019-05-27T00:57:07.739Z,99.99
2019-05-27T00:57:33.926Z,99.99
2019-05-27T00:58:26.214Z,99.99
2019-05-27T00:59:18.508Z,99.99
2019-05-27T00:59:44.640Z,99.99
2019-05-27T01:00:36.929Z,99.99
2019-05-27T01:01:55.398Z,99.99
2019-05-27T01:02:47.738Z,99.99
2019-05-27T01:04:06.241Z,99.99
2019-05-27T01:04:58.603Z,99.99
2019-05-27T01:05:24.730Z,99.99
2019-05-27T01:06:17.025Z,99.99
2019-05-27T01:07:35.544Z,99.99
2019-05-27T01:08:27.819Z,99.99
2019-05-27T01:08:53.961Z,99.99
2019-05-27T01:09:46.242Z,99.99
2019-05-27T01:10:38.568Z,99.99
2019-05-27T01:11:04.742Z,99.99
2019-05-27T01:11:57.058Z,99.99
2019-05-27T01:13:15.502Z,99.99
2019-05-27T01:14:07.792Z,99.99
2019-05-27T01:14:33.934Z,99.99
2019-05-27T01:15:26.246Z,99.99
2019-05-27T01:16:18.540Z,99.99
2019-05-27T01:16:44.673Z,99.99
2019-05-27T01:17:37.061Z,99.99
2019-05-27T01:18:55.544Z,99.99
2019-05-27T01:19:47.823Z,99.99
2019-05-27T01:20:13.958Z,99.99
2019-05-27T01:21:06.319Z,99.99
2019-05-27T01:21:58.631Z,99.99
2019-05-27T01:22:24.763Z,99.99
2019-05-27T01:23:17.081Z,99.99
2019-05-27T01:24:35.505Z,99.99
2019-05-27T01:25:27.838Z,99.99
2019-05-27T01:25:54.004Z,99.99
2019-05-27T01:26:46.328Z,99.99
2019-05-27T01:27:38.614Z,99.99
2019-05-27T01:28:04.780Z,99.99
2019-05-27T01:28:57.067Z,99.99
2019-05-27T01:30:15.614Z,99.99
2019-05-27T01:31:08.210Z,99.99
2019-05-27T01:31:34.336Z,99.99
2019-05-27T01:32:26.704Z,99.99
2019-05-27T01:33:19.003Z,99.99
2019-05-27T01:33:45.186Z,99.99
2019-05-27T01:34:37.502Z,99.99
2019-05-27T01:35:56.036Z,99.99
2019-05-27T01:36:48.323Z,99.99
2019-05-27T01:37:14.459Z,99.99
2019-05-27T01:38:06.793Z,99.99
2019-05-27T01:38:59.082Z,99.99
2019-05-27T01:39:25.243Z,99.99
2019-05-27T01:40:17.597Z,99.99
2019-05-27T01:41:37.008Z,99.99
2019-05-27T01:42:55.466Z,99.99
2019-05-27T01:43:47.746Z,99.99
2019-05-27T01:45:06.231Z,99.99
2019-05-27T01:45:58.523Z,99.99
2019-05-27T01:46:24.663Z,99.99
2019-05-27T01:47:16.958Z,99.99
2019-05-27T01:48:35.407Z,99.99
2019-05-27T01:49:27.741Z,99.99
2019-05-27T01:50:46.224Z,99.99
2019-05-27T01:51:38.540Z,99.99
2019-05-27T01:52:04.698Z,99.99
2019-05-27T01:52:57.015Z,99.99
2019-05-27T01:54:15.468Z,99.99
2019-05-27T01:55:07.759Z,99.99
2019-05-27T01:56:26.214Z,99.99
2019-05-27T01:57:18.505Z,99.99
2019-05-27T01:57:44.639Z,99.99
2019-05-27T01:58:36.933Z,99.99
2019-05-27T01:59:55.365Z,99.99
2019-05-27T02:00:47.657Z,99.99
2019-05-27T02:02:06.168Z,99.99
2019-05-27T02:02:58.514Z,99.99
2019-05-27T02:03:24.673Z,99.99
2019-05-27T02:04:16.980Z,99.99
2019-05-27T02:05:35.471Z,99.99
2019-05-27T02:06:27.795Z,99.99
2019-05-27T02:06:53.947Z,99.99
2019-05-27T02:07:46.263Z,99.99
2019-05-27T02:08:38.547Z,99.99
2019-05-27T02:09:04.680Z,99.99
2019-05-27T02:09:56.972Z,99.99
2019-05-27T02:11:15.451Z,99.99
2019-05-27T02:12:07.737Z,99.99
2019-05-27T02:13:26.160Z,99.99
2019-05-27T02:14:18.495Z,99.99
2019-05-27T02:14:44.629Z,99.99
2019-05-27T02:15:36.920Z,99.99
2019-05-27T02:16:56.372Z,99.99
2019-05-27T02:17:48.681Z,99.99
2019-05-27T02:18:14.904Z,99.99
2019-05-27T02:19:07.224Z,99.99
2019-05-27T02:20:25.733Z,99.99
2019-05-27T02:21:18.025Z,99.99
2019-05-27T02:21:44.188Z,99.99
2019-05-27T02:22:36.469Z,99.99
2019-05-27T02:23:28.766Z,99.99
2019-05-27T02:23:54.932Z,99.99
2019-05-27T02:24:47.221Z,99.99
2019-05-27T02:26:05.673Z,99.99
2019-05-27T02:26:57.968Z,99.99
2019-05-27T02:27:24.133Z,99.99
2019-05-27T02:28:16.458Z,99.99
2019-05-27T02:29:08.808Z,99.99
2019-05-27T02:29:34.947Z,99.99
2019-05-27T02:30:27.266Z,99.99
2019-05-27T02:31:45.829Z,99.99
2019-05-27T02:32:38.153Z,99.99
2019-05-27T02:33:04.317Z,99.99
2019-05-27T02:33:56.694Z,99.99
2019-05-27T02:34:49.011Z,99.99
2019-05-27T02:35:15.150Z,99.99
2019-05-27T02:36:07.468Z,99.99
2019-05-27T02:37:26.908Z,99.99
2019-05-27T02:38:45.429Z,99.99
2019-05-27T02:39:37.738Z,99.99
2019-05-27T02:40:56.217Z,99.99
2019-05-27T02:41:48.599Z,99.99
2019-05-27T02:42:14.732Z,99.99
2019-05-27T02:43:07.047Z,99.99
2019-05-27T02:44:25.560Z,99.99
2019-05-27T02:45:17.899Z,99.99
2019-05-27T02:45:44.058Z,99.99
2019-05-27T02:46:36.339Z,99.99
2019-05-27T02:47:28.676Z,99.99
2019-05-27T02:47:54.889Z,99.99
2019-05-27T02:48:47.262Z,99.99
2019-05-27T02:50:05.747Z,99.99
2019-05-27T02:50:58.087Z,99.99
2019-05-27T02:51:24.257Z,99.99
2019-05-27T02:52:16.584Z,99.99
2019-05-27T02:53:08.874Z,99.99
2019-05-27T02:53:35.044Z,99.99
2019-05-27T02:54:27.392Z,99.99
2019-05-27T02:55:45.873Z,99.99
2019-05-27T02:56:38.162Z,99.99
2019-05-27T02:57:04.358Z,99.99
2019-05-27T02:57:56.655Z,99.99
2019-05-27T02:58:48.981Z,99.99
2019-05-27T02:59:16.134Z,99.99
2019-05-27T03:00:08.448Z,99.99
2019-05-27T03:00:34.612Z,99.99
2019-05-27T03:01:26.950Z,99.99
2019-05-27T03:02:45.480Z,99.99
2019-05-27T03:03:37.812Z,99.99
2019-05-27T03:04:03.980Z,99.99
2019-05-27T03:04:56.335Z,99.99
2019-05-27T03:05:48.659Z,99.99
2019-05-27T03:06:14.794Z,99.99
2019-05-27T03:07:07.141Z,99.99
2019-05-27T03:08:25.684Z,99.99
2019-05-27T03:09:17.999Z,99.99
2019-05-27T03:09:44.135Z,99.99
2019-05-27T03:10:36.433Z,99.99
2019-05-27T03:11:28.723Z,99.99
2019-05-27T03:11:54.858Z,99.99
2019-05-27T03:12:47.194Z,99.99
2019-05-27T03:14:05.718Z,99.99
2019-05-27T03:14:58.033Z,99.99
2019-05-27T03:15:24.220Z,99.99
2019-05-27T03:16:16.536Z,99.99
2019-05-27T03:17:36.022Z,99.99
2019-05-27T03:18:28.343Z,99.99
2019-05-27T03:18:54.503Z,99.99
2019-05-27T03:19:46.788Z,99.99
2019-05-27T03:20:39.136Z,99.99
2019-05-27T03:21:05.308Z,99.99
2019-05-27T03:21:57.622Z,99.99
2019-05-27T03:23:16.076Z,99.99
2019-05-27T03:24:08.372Z,99.99
2019-05-27T03:24:38.607Z,99.99
2019-05-27T03:25:27.830Z,99.99
2019-05-27T03:25:53.970Z,99.99
2019-05-27T03:26:46.374Z,99.99
2019-05-27T03:27:38.674Z,99.99
2019-05-27T03:28:04.878Z,99.99
2019-05-27T03:28:57.135Z,99.99
2019-05-27T03:30:15.619Z,99.99
2019-05-27T03:31:07.952Z,99.99
2019-05-27T03:31:35.101Z,99.99
2019-05-27T03:32:27.402Z,99.99
2019-05-27T03:33:45.885Z,99.99
2019-05-27T03:34:38.220Z,99.99
2019-05-27T03:35:04.402Z,99.99
2019-05-27T03:35:56.735Z,99.99
2019-05-27T03:36:49.034Z,99.99
2019-05-27T03:37:15.171Z,99.99
2019-05-27T03:38:07.504Z,99.99
2019-05-27T03:39:26.948Z,99.99
2019-05-27T03:40:45.476Z,99.99
2019-05-27T03:41:37.952Z,99.99
2019-05-27T03:42:21.826Z,99.99
2019-05-27T03:42:58.490Z,99.99
2019-05-27T03:43:24.647Z,99.99
2019-05-27T03:44:17.313Z,99.99
2019-05-27T03:44:45.434Z,99.99
2019-05-27T03:46:07.731Z,99.99
2019-05-27T03:46:35.863Z,99.99
2019-05-27T03:48:00.280Z,99.99
2019-05-27T03:48:26.975Z,99.99
2019-05-27T03:48:54.425Z,99.99
2019-05-27T03:50:16.594Z,99.99
2019-05-27T03:51:35.758Z,99.99
2019-05-27T03:52:28.349Z,99.99
2019-05-27T03:52:54.680Z,99.99
2019-05-27T03:53:49.366Z,99.99
2019-05-27T03:54:17.443Z,99.99
2019-05-27T03:54:44.735Z,99.99
2019-05-27T03:55:37.366Z,99.99
2019-05-27T03:56:56.357Z,99.99
2019-05-27T03:57:48.691Z,99.99
2019-05-27T03:58:14.862Z,99.99
2019-05-27T03:59:07.181Z,99.99
2019-05-27T04:00:25.646Z,99.99
2019-05-27T04:01:17.997Z,99.99
2019-05-27T04:01:44.164Z,99.99
2019-05-27T04:02:36.486Z,99.99
2019-05-27T04:03:55.947Z,99.99
2019-05-27T04:04:48.261Z,99.99
2019-05-27T04:05:14.433Z,99.99
2019-05-27T04:06:06.752Z,99.99
2019-05-27T04:06:59.119Z,99.99
2019-05-27T04:07:25.256Z,99.99
2019-05-27T04:08:17.546Z,99.99
2019-05-27T04:09:36.047Z,99.99
2019-05-27T04:10:28.392Z,99.99
2019-05-27T04:10:54.568Z,99.99
2019-05-27T04:11:46.896Z,99.68
2019-05-27T04:13:05.401Z,99.1
2019-05-27T04:13:57.775Z,99.29
2019-05-27T04:14:23.913Z,99.1
2019-05-27T04:15:16.236Z,99.19
2019-05-27T04:16:08.533Z,99.01
2019-05-27T04:16:34.723Z,99.48
2019-05-27T04:17:27.042Z,99.48
2019-05-27T04:18:45.557Z,98.62
2019-05-27T04:19:37.933Z,98.91
2019-05-27T04:20:04.088Z,98.33
2019-05-27T04:20:56.469Z,98.33
2019-05-27T04:21:48.766Z,98.62
2019-05-27T04:22:14.928Z,98.24
2019-05-27T04:23:07.327Z,98.43
2019-05-27T04:24:25.815Z,98.62
2019-05-27T04:25:18.128Z,98.52
2019-05-27T04:25:44.330Z,97.95
2019-05-27T04:26:36.664Z,97.18
2019-05-27T04:27:28.990Z,96.8
2019-05-27T04:27:55.158Z,97.28
2019-05-27T04:28:47.478Z,97.09
2019-05-27T04:30:06.043Z,97.09
2019-05-27T04:30:58.357Z,96.42
2019-05-27T04:31:24.553Z,96.7
2019-05-27T04:32:17.053Z,97.09
2019-05-27T04:33:35.534Z,97.28
2019-05-27T04:34:27.872Z,96.99
2019-05-27T04:34:54.010Z,96.7
2019-05-27T04:35:46.326Z,97.09
2019-05-27T04:37:05.796Z,97.28
2019-05-27T04:37:58.144Z,96.99
2019-05-27T04:38:24.281Z,97.28
2019-05-27T04:39:16.624Z,96.99
2019-05-27T04:40:08.976Z,96.61
2019-05-27T04:40:35.154Z,96.89
2019-05-27T04:41:27.469Z,96.51
2019-05-27T04:42:46.917Z,96.89
2019-05-27T04:44:05.340Z,96.42
2019-05-27T04:44:57.681Z,96.18
2019-05-27T04:46:16.234Z,94.74
2019-05-27T04:47:08.695Z,94.79
2019-05-27T04:47:34.811Z,94.93
2019-05-27T04:48:27.156Z,94.98
2019-05-27T04:49:45.602Z,95.07
2019-05-27T04:50:37.953Z,94.89
2019-05-27T04:51:04.158Z,94.74
2019-05-27T04:51:56.480Z,95.21
2019-05-27T04:52:48.804Z,94.93
2019-05-27T04:53:14.961Z,95.03
2019-05-27T04:54:07.314Z,94.79
2019-05-27T04:55:25.821Z,94.74
2019-05-27T04:56:45.325Z,94.74
2019-05-27T04:57:37.648Z,94.93
2019-05-27T04:58:56.148Z,94.35
2019-05-27T04:59:48.467Z,94.84
2019-05-27T05:00:14.637Z,94.45
2019-05-27T05:01:06.982Z,94.45
2019-05-27T05:02:25.471Z,94.26
2019-05-27T05:03:17.820Z,94.84
2019-05-27T05:03:43.950Z,94.45
2019-05-27T05:04:36.304Z,94.45
2019-05-27T05:05:28.599Z,93.97
2019-05-27T05:05:55.100Z,93.88
2019-05-27T05:06:47.553Z,93.68
2019-05-27T05:08:08.148Z,93.97
2019-05-27T05:08:34.805Z,93.73
2019-05-27T05:09:27.507Z,93.21
2019-05-27T05:10:45.937Z,92.91
2019-05-27T05:11:38.254Z,93.3
2019-05-27T05:12:04.394Z,93.01
2019-05-27T05:12:56.690Z,93.3
2019-05-27T05:13:48.985Z,93.49
2019-05-27T05:14:15.172Z,93.68
2019-05-27T05:15:10.066Z,94.64
2019-05-27T05:16:26.072Z,94.54
2019-05-27T05:17:18.494Z,94.17
2019-05-27T05:17:44.632Z,93.88
2019-05-27T05:18:36.942Z,93.68
2019-05-27T05:19:09.601Z,93.11
2019-05-27T05:19:56.475Z,94.17
2019-05-27T05:21:15.959Z,94.74
2019-05-27T05:22:08.262Z,93.97
2019-05-27T05:22:34.469Z,93.78
2019-05-27T05:23:26.813Z,93.49
2019-05-27T05:24:45.415Z,93.97
2019-05-27T05:25:37.704Z,93.68
2019-05-27T05:26:56.159Z,93.49
2019-05-27T05:27:48.467Z,93.63
2019-05-27T05:28:14.610Z,94.02
2019-05-27T05:29:06.948Z,94.59
2019-05-27T05:30:25.490Z,94.21
2019-05-27T05:31:17.779Z,94.89
2019-05-27T05:31:43.952Z,94.69
2019-05-27T05:32:36.418Z,95.65
2019-05-27T05:33:55.858Z,94.31
2019-05-27T05:34:48.568Z,94.4
2019-05-27T05:35:14.715Z,94.5
2019-05-27T05:36:07.000Z,94.98
2019-05-27T05:37:25.460Z,94.89
2019-05-27T05:38:17.853Z,94.89
2019-05-27T05:38:43.992Z,95.07
2019-05-27T05:39:36.359Z,95.17
2019-05-27T05:40:29.089Z,95.03
2019-05-27T05:40:55.230Z,94.31
2019-05-27T05:41:47.513Z,94.79
2019-05-27T05:43:05.972Z,94.07
2019-05-27T05:43:58.273Z,94.17
2019-05-27T05:44:24.454Z,93.88
2019-05-27T05:45:16.793Z,93.68
2019-05-27T05:46:09.084Z,94.35
2019-05-27T05:46:35.277Z,94.17
2019-05-27T05:47:27.560Z,94.17
2019-05-27T05:48:46.032Z,93.35
2019-05-27T05:50:05.488Z,92.19
2019-05-27T05:50:57.847Z,91.62
2019-05-27T05:51:24.013Z,91.24
2019-05-27T05:52:16.300Z,90.85
2019-05-27T05:53:09.033Z,89.51
2019-05-27T05:53:35.178Z,89.32
2019-05-27T05:54:27.489Z,88.26
2019-05-27T05:55:49.110Z,88.65
2019-05-27T05:56:38.304Z,88.55
2019-05-27T05:57:04.440Z,88.74
2019-05-27T05:57:56.763Z,88.26
2019-05-27T05:59:15.410Z,88.07
2019-05-27T06:00:14.115Z,87.98
2019-05-27T06:00:35.854Z,87.98
2019-05-27T06:01:28.211Z,87.63
2019-05-27T06:01:54.376Z,87.35
2019-05-27T06:02:46.702Z,87.35
2019-05-27T06:03:39.055Z,86.92
2019-05-27T06:04:05.226Z,87.49
2019-05-27T06:04:57.518Z,87.73
2019-05-27T06:06:16.006Z,87.4
2019-05-27T06:07:08.298Z,88.35
2019-05-27T06:07:34.437Z,88.07
2019-05-27T06:08:26.756Z,88.35
2019-05-27T06:09:19.062Z,86.68
2019-05-27T06:09:45.191Z,86.58
2019-05-27T06:10:40.648Z,86.58
2019-05-27T06:11:05.008Z,86.77
2019-05-27T06:11:57.304Z,85.71
2019-05-27T06:13:15.843Z,85.47
2019-05-27T06:14:08.591Z,84.51
2019-05-27T06:14:36.950Z,84.7
2019-05-27T06:15:04.648Z,84.8
2019-05-27T06:15:59.407Z,83.74
2019-05-27T06:16:28.240Z,82.78
2019-05-27T06:16:56.146Z,81.28
2019-05-27T06:17:54.020Z,80.8
2019-05-27T06:19:19.737Z,80.13
2019-05-27T06:19:48.967Z,79.65
2019-05-27T06:20:16.846Z,79.65
2019-05-27T06:20:44.665Z,79.75
2019-05-27T06:23:37.819Z,79.27
2019-05-27T06:24:05.758Z,78.88
2019-05-27T06:24:34.452Z,78.59
2019-05-27T06:25:58.146Z,78.4
2019-05-27T06:26:26.854Z,78.34
2019-05-27T06:26:56.695Z,78.88
2019-05-27T06:27:26.447Z,78.44
2019-05-27T06:27:55.386Z,77.86
2019-05-27T06:29:18.420Z,78.63
2019-05-27T06:30:32.502Z,78.15
2019-05-27T06:30:45.595Z,76.81
2019-05-27T06:31:14.134Z,76.52
2019-05-27T06:32:39.131Z,76.57
2019-05-27T06:33:09.001Z,76.71
2019-05-27T06:33:36.157Z,76.61
2019-05-27T06:35:28.743Z,77.15
2019-05-27T06:35:56.862Z,76.86
2019-05-27T06:36:24.892Z,76.48
2019-05-27T06:36:59.423Z,77.06
2019-05-27T06:37:24.950Z,77.63
2019-05-27T06:37:54.733Z,76.96
2019-05-27T06:40:17.380Z,76.04
2019-05-27T06:40:45.080Z,76.14
2019-05-27T06:41:14.884Z,76.81
2019-05-27T06:42:37.579Z,76.42
2019-05-27T06:43:07.275Z,77.09
2019-05-27T06:43:36.153Z,77
2019-05-27T06:44:05.508Z,77.19
2019-05-27T06:46:00.396Z,76.42
2019-05-27T06:46:58.740Z,76.42
2019-05-27T06:47:27.453Z,76.48
2019-05-27T06:47:55.912Z,76.52
2019-05-27T06:48:25.011Z,75.94
2019-05-27T06:49:19.167Z,76.29
2019-05-27T06:50:04.769Z,75.84
2019-05-27T06:50:16.804Z,76.71
2019-05-27T06:50:44.335Z,76.42
2019-05-27T06:51:38.552Z,75.84
2019-05-27T06:52:07.090Z,75.75
2019-05-27T06:52:34.866Z,75.65
2019-05-27T06:53:04.538Z,75.46
2019-05-27T06:54:29.010Z,77.25
2019-05-27T06:54:56.788Z,77.92
2019-05-27T06:55:25.570Z,78.3
2019-05-27T06:55:54.857Z,77.15
2019-05-27T06:57:19.642Z,76.42
2019-05-27T06:57:47.892Z,76.14
2019-05-27T06:58:18.978Z,75.37
2019-05-27T06:58:47.436Z,75.21
2019-05-27T06:59:16.010Z,75.11
2019-05-27T07:00:39.614Z,74.15
2019-05-27T07:01:08.558Z,74.34
2019-05-27T07:01:34.719Z,73.77
2019-05-27T07:02:27.063Z,73.09
2019-05-27T07:03:45.539Z,73.09
2019-05-27T07:04:37.883Z,72.07
2019-05-27T07:05:04.032Z,71.69
2019-05-27T07:05:56.331Z,70.6
2019-05-27T07:06:48.685Z,69.93
2019-05-27T07:07:14.829Z,69.29
2019-05-27T07:08:08.227Z,67.74
2019-05-27T07:08:34.385Z,67.46
2019-05-27T07:09:26.637Z,66.78
2019-05-27T07:10:18.954Z,66.82
2019-05-27T07:10:45.367Z,65.85
2019-05-27T07:11:37.480Z,64.76
2019-05-27T07:12:55.937Z,67
2019-05-27T07:13:48.247Z,66.3
2019-05-27T07:14:14.416Z,66.59
2019-05-27T07:15:06.820Z,66.69
2019-05-27T07:16:27.427Z,68
2019-05-27T07:17:45.924Z,67.19
2019-05-27T07:18:38.296Z,68.8
2019-05-27T07:19:04.437Z,69.18
2019-05-27T07:19:56.724Z,69.34
2019-05-27T07:20:29.450Z,70.27
2019-05-27T07:21:16.237Z,70.78
2019-05-27T07:22:08.596Z,71.36
2019-05-27T07:22:34.806Z,70.78
2019-05-27T07:23:27.133Z,71.11
2019-05-27T07:24:45.613Z,69.06
2019-05-27T07:25:37.959Z,67.52
2019-05-27T07:26:04.122Z,66.85
2019-05-27T07:26:56.439Z,67.71
2019-05-27T07:27:48.792Z,68.29
2019-05-27T07:28:14.978Z,68
2019-05-27T07:29:07.271Z,66.2
2019-05-27T07:30:25.708Z,65.75
2019-05-27T07:31:19.058Z,65.05
2019-05-27T07:31:45.196Z,65.43
2019-05-27T07:32:37.558Z,66.04
2019-05-27T07:33:56.013Z,66.01
2019-05-27T07:34:48.433Z,64.95
2019-05-27T07:35:14.662Z,65.05
2019-05-27T07:36:06.953Z,63.37
2019-05-27T07:37:25.401Z,62.92
2019-05-27T07:38:17.728Z,61.47
2019-05-27T07:39:37.214Z,55.89
2019-05-27T07:40:55.680Z,55.07
2019-05-27T07:41:47.979Z,53.45
2019-05-27T07:42:14.168Z,52.66
2019-05-27T07:43:06.519Z,52.17
2019-05-27T07:43:58.829Z,53.04
2019-05-27T07:44:24.960Z,52.66
2019-05-27T07:45:17.273Z,53.31
2019-05-27T07:46:48.817Z,54.27
2019-05-27T07:47:29.134Z,53.53
2019-05-27T07:47:55.297Z,52.97
2019-05-27T07:48:47.619Z,52.58
2019-05-27T07:50:06.161Z,51.52
2019-05-27T07:51:26.596Z,51.62
2019-05-27T07:52:18.916Z,52.36
2019-05-27T07:52:45.082Z,51.95
2019-05-27T07:53:38.443Z,54.63
2019-05-27T07:54:04.621Z,54.53
2019-05-27T07:55:01.893Z,54.73
2019-05-27T07:56:15.441Z,52.95
2019-05-27T07:57:07.808Z,51.84
2019-05-27T07:57:33.978Z,50.96
2019-05-27T07:58:26.299Z,48.95
2019-05-27T07:59:18.861Z,48.95
2019-05-27T07:59:44.988Z,49.05
2019-05-27T08:00:37.314Z,49.02
2019-05-27T08:02:09.840Z,51.23
2019-05-27T08:03:17.267Z,49.34
2019-05-27T08:04:35.779Z,48.9
2019-05-27T08:05:28.126Z,45.72
2019-05-27T08:05:54.424Z,45.07
2019-05-27T08:06:46.667Z,44
2019-05-27T08:07:38.966Z,45.7
2019-05-27T08:08:05.165Z,45.61
2019-05-27T08:09:05.962Z,46.28
2019-05-27T08:09:24.720Z,45.53
2019-05-27T08:10:17.035Z,45.24
2019-05-27T08:11:37.479Z,43.71
2019-05-27T08:12:55.938Z,43.73
2019-05-27T08:13:24.867Z,43.54
2019-05-27T08:14:16.443Z,41.8
2019-05-27T08:15:08.746Z,42.74
2019-05-27T08:15:34.891Z,43.88
2019-05-27T08:16:27.188Z,44.27
2019-05-27T08:17:47.672Z,44.44
2019-05-27T08:19:07.215Z,45.31
2019-05-27T08:20:30.230Z,45.04
2019-05-27T08:21:47.168Z,42.71
2019-05-27T08:22:14.359Z,42.74
2019-05-27T08:23:11.679Z,42.83
2019-05-27T08:24:26.146Z,41.88
2019-05-27T08:25:18.489Z,42.1
2019-05-27T08:25:44.752Z,41.42
2019-05-27T08:26:37.059Z,43.93
2019-05-27T08:27:55.528Z,45.07
2019-05-27T08:28:47.962Z,44.46
2019-05-27T08:29:14.107Z,43.61
2019-05-27T08:30:20.927Z,41.51
2019-05-27T08:31:42.935Z,41.2
2019-05-27T08:31:54.132Z,41.3
2019-05-27T08:32:48.088Z,42.71
2019-05-27T08:34:06.085Z,43.06
2019-05-27T08:34:58.431Z,42.81
2019-05-27T08:35:24.600Z,41.67
2019-05-27T08:36:17.943Z,41.36
2019-05-27T08:36:44.112Z,42.09
2019-05-27T08:37:37.403Z,41.77
2019-05-27T08:38:56.886Z,39.75
2019-05-27T08:40:15.388Z,41.22
2019-05-27T08:41:07.753Z,43.79
2019-05-27T08:41:33.940Z,44.72
2019-05-27T08:42:26.238Z,46.63
2019-05-27T08:43:46.672Z,48.2
2019-05-27T08:44:39.003Z,47.72
2019-05-27T08:45:05.179Z,47.26
2019-05-27T08:45:57.546Z,45.15
2019-05-27T08:47:16.044Z,44.4
2019-05-27T08:48:08.363Z,44.01
2019-05-27T08:48:34.542Z,44.4
2019-05-27T08:49:26.874Z,43.26
2019-05-27T08:50:45.361Z,42.81
2019-05-27T08:51:38.704Z,41.16
2019-05-27T08:52:04.856Z,40.79
2019-05-27T08:52:57.224Z,40.81
2019-05-27T08:54:15.744Z,41.22
2019-05-27T08:55:35.346Z,39.29
2019-05-27T08:56:27.672Z,38.26
2019-05-27T08:57:46.189Z,37.99
2019-05-27T08:58:38.511Z,39.55
2019-05-27T08:59:04.685Z,39.36
2019-05-27T08:59:57.020Z,39.18
2019-05-27T09:01:15.502Z,39.82
2019-05-27T09:02:08.016Z,40.79
2019-05-27T09:02:34.115Z,40.99
2019-05-27T09:03:26.597Z,41.06
2019-05-27T09:04:18.915Z,42.77
2019-05-27T09:04:45.005Z,43.64
2019-05-27T09:05:37.329Z,42.5
2019-05-27T09:06:56.751Z,42.57
2019-05-27T09:07:49.052Z,43.54
2019-05-27T09:08:15.249Z,43.27
2019-05-27T09:09:08.562Z,41.84
2019-05-27T09:09:34.716Z,41.38
2019-05-27T09:10:27.013Z,41.01
2019-05-27T09:11:45.590Z,39.65
2019-05-27T09:12:55.718Z,40.31
2019-05-27T09:13:06.089Z,40.42
2019-05-27T09:13:58.439Z,39.18
2019-05-27T09:14:25.595Z,39.1
2019-05-27T09:15:17.929Z,37.27
2019-05-27T09:15:44.094Z,37.9
2019-05-27T09:16:36.419Z,38.46
2019-05-27T09:17:28.764Z,37.8
2019-05-27T09:17:55.393Z,36.94
2019-05-27T09:18:47.681Z,34.69
2019-05-27T09:19:14.822Z,34.7
2019-05-27T09:20:07.145Z,34.06
2019-05-27T09:20:47.797Z,33.98
2019-05-27T09:21:35.032Z,32.55
2019-05-27T09:21:55.769Z,31.77
2019-05-27T09:22:48.130Z,31.59
2019-05-27T09:23:14.271Z,31.79
2019-05-27T09:24:20.301Z,31.43
2019-05-27T09:25:26.390Z,30.47
2019-05-27T09:26:18.717Z,29.88
2019-05-27T09:26:57.506Z,29.7
2019-05-27T09:28:05.329Z,29.86
2019-05-27T09:28:58.183Z,30.68
2019-05-27T09:29:24.887Z,31.67
2019-05-27T09:30:17.220Z,32.32
2019-05-27T09:31:35.745Z,32.28
2019-05-27T09:32:29.067Z,31.51
2019-05-27T09:32:55.230Z,31.13
2019-05-27T09:33:47.565Z,30.24
2019-05-27T09:35:06.092Z,31.66
2019-05-27T09:35:58.391Z,32.23
2019-05-27T09:36:24.611Z,32.52
2019-05-27T09:37:16.970Z,33.29
2019-05-27T09:38:35.440Z,33.75
2019-05-27T09:39:27.749Z,33.11
2019-05-27T09:39:53.941Z,32.62
2019-05-27T09:40:46.571Z,33.11
2019-05-27T09:41:38.869Z,32.63
2019-05-27T09:42:05.040Z,32.15
2019-05-27T09:42:57.447Z,32.52
2019-05-27T09:44:15.976Z,34.05
2019-05-27T09:45:08.900Z,36.1
2019-05-27T09:45:34.646Z,36.46
2019-05-27T09:46:27.940Z,37.26
2019-05-27T09:46:54.080Z,37.63
2019-05-27T09:47:46.412Z,37.66
2019-05-27T09:48:38.744Z,36.07
2019-05-27T09:49:04.906Z,34.72
2019-05-27T09:49:57.233Z,32.7
2019-05-27T09:51:17.837Z,32.03
2019-05-27T09:51:50.012Z,32.23
2019-05-27T09:52:37.388Z,32.24
2019-05-27T09:53:55.789Z,31.57
2019-05-27T09:54:50.014Z,31.1
2019-05-27T09:55:14.310Z,31.48
2019-05-27T09:56:06.654Z,30.15
2019-05-27T09:56:58.940Z,29.36
2019-05-27T09:57:25.130Z,28.99
2019-05-27T09:58:17.466Z,29.17
2019-05-27T09:59:35.995Z,29.66
2019-05-27T10:00:55.528Z,28.91
2019-05-27T10:01:47.849Z,28.5
2019-05-27T10:02:13.992Z,28.99
2019-05-27T10:03:06.354Z,29.38
2019-05-27T10:03:58.668Z,29.92
2019-05-27T10:04:24.819Z,31.43
2019-05-27T10:05:17.184Z,32.5
2019-05-27T10:06:35.726Z,31.64
2019-05-27T10:07:28.253Z,31.76
2019-05-27T10:07:54.627Z,31.95
2019-05-27T10:08:47.008Z,32.52
2019-05-27T10:09:14.166Z,32.42
2019-05-27T10:10:21.250Z,32.42
2019-05-27T10:10:34.723Z,32.52
2019-05-27T10:11:27.032Z,33.01
2019-05-27T10:12:45.643Z,32.82
2019-05-27T10:13:41.408Z,33.36
2019-05-27T10:14:05.113Z,33.26
2019-05-27T10:14:57.550Z,33.48
2019-05-27T10:16:16.133Z,32.73
2019-05-27T10:17:08.593Z,30.7
2019-05-27T10:17:34.894Z,30.02
2019-05-27T10:18:27.632Z,29.53
2019-05-27T10:19:46.254Z,30.11
2019-05-27T10:20:39.134Z,30.11
2019-05-27T10:21:05.321Z,30.21
2019-05-27T10:22:19.588Z,29.93
2019-05-27T10:22:26.390Z,29.74
2019-05-27T10:23:18.177Z,30.21
2019-05-27T10:23:44.349Z,30.41
2019-05-27T10:24:36.706Z,30
2019-05-27T10:25:29.330Z,30.75
2019-05-27T10:25:55.244Z,31.32
2019-05-27T10:26:47.574Z,32.28
2019-05-27T10:28:06.156Z,32.17
2019-05-27T10:28:58.467Z,32.15
2019-05-27T10:29:24.616Z,32.04
2019-05-27T10:30:16.959Z,32.73
2019-05-27T10:31:35.459Z,33.01
2019-05-27T10:32:27.790Z,32.81
2019-05-27T10:32:53.931Z,32.81
2019-05-27T10:33:46.463Z,32.81
2019-05-27T10:35:05.953Z,32.32
2019-05-27T10:35:58.311Z,32.35
2019-05-27T10:36:24.453Z,31.87
2019-05-27T10:37:16.800Z,31.03
2019-05-27T10:38:09.235Z,30.07
2019-05-27T10:38:35.426Z,29.79
2019-05-27T10:39:27.767Z,29.32
2019-05-27T10:39:53.952Z,29.53
2019-05-27T10:40:46.251Z,28.57
2019-05-27T10:41:38.560Z,28.07
2019-05-27T10:42:04.715Z,27.97
2019-05-27T10:42:57.047Z,28.38
2019-05-27T10:44:15.557Z,28.58
2019-05-27T10:45:07.908Z,28.78
2019-05-27T10:45:34.062Z,28.64
2019-05-27T10:46:26.720Z,29.69
2019-05-27T10:47:19.067Z,30.1